sensor_id;sensor_type;location;lat;lon;timestamp;temperature;humidity
14527;DHT22;7350;51.208;4.238;2023-04-06T00:00:35;16.80;99.90
14527;DHT22;7350;51.208;4.238;2023-04-06T00:03:03;16.80;99.90
14527;DHT22;7350;51.208;4.238;2023-04-06T00:05:30;16.80;99.90
14527;DHT22;7350;51.208;4.238;2023-04-06T00:07:57;16.80;99.90
14527;DHT22;7350;51.208;4.238;2023-04-06T00:10:25;16.80;99.90
14527;DHT22;7350;51.208;4.238;2023-04-06T00:12:52;16.80;99.90
14527;DHT22;7350;51.208;4.238;2023-04-06T00:15:19;16.80;99.90
14527;DHT22;7350;51.208;4.238;2023-04-06T00:17:46;16.80;99.90
14527;DHT22;7350;51.208;4.238;2023-04-06T00:20:15;16.80;99.90
14527;DHT22;7350;51.208;4.238;2023-04-06T00:22:42;16.80;99.90
14527;DHT22;7350;51.208;4.238;2023-04-06T00:25:10;16.80;99.90
14527;DHT22;7350;51.208;4.238;2023-04-06T00:27:37;16.90;99.90
14527;DHT22;7350;51.208;4.238;2023-04-06T00:30:06;16.80;99.90
14527;DHT22;7350;51.208;4.238;2023-04-06T00:32:34;16.70;99.90
14527;DHT22;7350;51.208;4.238;2023-04-06T00:35:02;16.70;99.90
14527;DHT22;7350;51.208;4.238;2023-04-06T00:37:30;16.70;99.90
14527;DHT22;7350;51.208;4.238;2023-04-06T00:39:58;16.70;99.90
14527;DHT22;7350;51.208;4.238;2023-04-06T00:42:25;16.70;99.90
14527;DHT22;7350;51.208;4.238;2023-04-06T00:44:52;16.70;99.90
14527;DHT22;7350;51.208;4.238;2023-04-06T00:47:20;16.70;99.90
14527;DHT22;7350;51.208;4.238;2023-04-06T00:49:47;16.70;99.90
14527;DHT22;7350;51.208;4.238;2023-04-06T00:52:15;16.70;99.90
14527;DHT22;7350;51.208;4.238;2023-04-06T00:54:43;16.70;99.90
14527;DHT22;7350;51.208;4.238;2023-04-06T00:57:11;16.70;99.90
14527;DHT22;7350;51.208;4.238;2023-04-06T00:59:38;16.60;99.90
14527;DHT22;7350;51.208;4.238;2023-04-06T01:02:06;16.70;99.90
14527;DHT22;7350;51.208;4.238;2023-04-06T01:04:33;16.70;99.90
14527;DHT22;7350;51.208;4.238;2023-04-06T01:07:01;16.60;99.90
14527;DHT22;7350;51.208;4.238;2023-04-06T01:09:28;16.60;99.90
14527;DHT22;7350;51.208;4.238;2023-04-06T01:11:57;16.70;99.90
14527;DHT22;7350;51.208;4.238;2023-04-06T01:14:25;16.70;99.90
14527;DHT22;7350;51.208;4.238;2023-04-06T01:16:52;16.70;99.90
14527;DHT22;7350;51.208;4.238;2023-04-06T01:19:22;16.70;99.90
14527;DHT22;7350;51.208;4.238;2023-04-06T01:21:49;16.60;99.90
14527;DHT22;7350;51.208;4.238;2023-04-06T01:24:20;16.70;99.90
14527;DHT22;7350;51.208;4.238;2023-04-06T01:26:47;16.70;99.90
14527;DHT22;7350;51.208;4.238;2023-04-06T01:29:14;16.60;99.90
14527;DHT22;7350;51.208;4.238;2023-04-06T01:31:41;16.60;99.90
14527;DHT22;7350;51.208;4.238;2023-04-06T01:34:08;16.60;99.90
14527;DHT22;7350;51.208;4.238;2023-04-06T01:36:35;16.60;99.90
14527;DHT22;7350;51.208;4.238;2023-04-06T01:39:02;16.60;99.90
14527;DHT22;7350;51.208;4.238;2023-04-06T01:41:31;16.60;99.90
14527;DHT22;7350;51.208;4.238;2023-04-06T01:43:58;16.60;99.90
14527;DHT22;7350;51.208;4.238;2023-04-06T01:46:25;16.60;99.90
14527;DHT22;7350;51.208;4.238;2023-04-06T01:48:52;16.60;99.90
14527;DHT22;7350;51.208;4.238;2023-04-06T01:51:19;16.60;99.90
14527;DHT22;7350;51.208;4.238;2023-04-06T01:53:46;16.60;99.90
14527;DHT22;7350;51.208;4.238;2023-04-06T01:56:14;16.60;99.90
14527;DHT22;7350;51.208;4.238;2023-04-06T01:58:42;16.60;99.90
14527;DHT22;7350;51.208;4.238;2023-04-06T02:01:09;16.60;99.90
14527;DHT22;7350;51.208;4.238;2023-04-06T02:03:36;16.60;99.90
14527;DHT22;7350;51.208;4.238;2023-04-06T02:06:03;16.60;99.90
14527;DHT22;7350;51.208;4.238;2023-04-06T02:08:30;16.60;99.90
14527;DHT22;7350;51.208;4.238;2023-04-06T02:10:57;16.60;99.90
14527;DHT22;7350;51.208;4.238;2023-04-06T02:13:24;16.60;99.90
14527;DHT22;7350;51.208;4.238;2023-04-06T02:15:53;16.70;99.90
14527;DHT22;7350;51.208;4.238;2023-04-06T02:18:20;16.70;99.90
14527;DHT22;7350;51.208;4.238;2023-04-06T02:20:48;16.70;99.90
14527;DHT22;7350;51.208;4.238;2023-04-06T02:23:15;16.60;99.90
14527;DHT22;7350;51.208;4.238;2023-04-06T02:25:42;16.70;99.90
14527;DHT22;7350;51.208;4.238;2023-04-06T02:28:09;16.80;99.90
14527;DHT22;7350;51.208;4.238;2023-04-06T02:30:36;16.70;99.90
14527;DHT22;7350;51.208;4.238;2023-04-06T02:33:04;16.70;99.90
14527;DHT22;7350;51.208;4.238;2023-04-06T02:35:31;16.60;99.90
14527;DHT22;7350;51.208;4.238;2023-04-06T02:37:58;16.60;99.90
14527;DHT22;7350;51.208;4.238;2023-04-06T02:40:25;16.60;99.90
14527;DHT22;7350;51.208;4.238;2023-04-06T02:42:52;16.70;99.90
14527;DHT22;7350;51.208;4.238;2023-04-06T02:45:19;16.60;99.90
14527;DHT22;7350;51.208;4.238;2023-04-06T02:47:47;16.60;99.90
14527;DHT22;7350;51.208;4.238;2023-04-06T02:50:15;16.60;99.90
14527;DHT22;7350;51.208;4.238;2023-04-06T02:52:42;16.60;99.90
14527;DHT22;7350;51.208;4.238;2023-04-06T02:55:09;16.60;99.90
14527;DHT22;7350;51.208;4.238;2023-04-06T02:57:36;16.60;99.90
14527;DHT22;7350;51.208;4.238;2023-04-06T03:00:04;16.50;99.90
14527;DHT22;7350;51.208;4.238;2023-04-06T03:02:32;16.60;99.90
14527;DHT22;7350;51.208;4.238;2023-04-06T03:04:59;16.60;99.90
14527;DHT22;7350;51.208;4.238;2023-04-06T03:07:27;16.60;99.90
14527;DHT22;7350;51.208;4.238;2023-04-06T03:09:55;16.70;99.90
14527;DHT22;7350;51.208;4.238;2023-04-06T03:12:22;16.70;99.90
14527;DHT22;7350;51.208;4.238;2023-04-06T03:14:49;16.60;99.90
14527;DHT22;7350;51.208;4.238;2023-04-06T03:17:16;16.60;99.90
14527;DHT22;7350;51.208;4.238;2023-04-06T03:19:43;16.60;99.90
14527;DHT22;7350;51.208;4.238;2023-04-06T03:22:10;16.60;99.90
14527;DHT22;7350;51.208;4.238;2023-04-06T03:24:38;16.60;99.90
14527;DHT22;7350;51.208;4.238;2023-04-06T03:27:05;16.60;99.90
14527;DHT22;7350;51.208;4.238;2023-04-06T03:29:32;16.60;99.90
14527;DHT22;7350;51.208;4.238;2023-04-06T03:32:00;16.60;99.90
14527;DHT22;7350;51.208;4.238;2023-04-06T03:34:27;16.60;99.90
14527;DHT22;7350;51.208;4.238;2023-04-06T03:36:54;16.60;99.90
14527;DHT22;7350;51.208;4.238;2023-04-06T03:39:21;16.60;99.90
14527;DHT22;7350;51.208;4.238;2023-04-06T03:41:49;16.60;99.90
14527;DHT22;7350;51.208;4.238;2023-04-06T03:44:16;16.60;99.90
14527;DHT22;7350;51.208;4.238;2023-04-06T03:46:43;16.60;99.90
14527;DHT22;7350;51.208;4.238;2023-04-06T03:49:10;16.50;99.90
14527;DHT22;7350;51.208;4.238;2023-04-06T03:51:37;16.60;99.90
14527;DHT22;7350;51.208;4.238;2023-04-06T03:54:05;16.60;99.90
14527;DHT22;7350;51.208;4.238;2023-04-06T03:56:32;16.50;99.90
14527;DHT22;7350;51.208;4.238;2023-04-06T03:59:00;16.50;99.90
14527;DHT22;7350;51.208;4.238;2023-04-06T04:01:27;16.50;99.90
14527;DHT22;7350;51.208;4.238;2023-04-06T04:03:55;16.50;99.90
14527;DHT22;7350;51.208;4.238;2023-04-06T04:06:22;16.50;99.90
14527;DHT22;7350;51.208;4.238;2023-04-06T04:08:49;16.50;99.90
14527;DHT22;7350;51.208;4.238;2023-04-06T04:11:16;16.50;99.90
14527;DHT22;7350;51.208;4.238;2023-04-06T04:13:43;16.50;99.90
14527;DHT22;7350;51.208;4.238;2023-04-06T04:16:11;16.50;99.90
14527;DHT22;7350;51.208;4.238;2023-04-06T04:18:38;16.50;99.90
14527;DHT22;7350;51.208;4.238;2023-04-06T04:21:05;16.40;99.90
14527;DHT22;7350;51.208;4.238;2023-04-06T04:23:32;16.50;99.90
14527;DHT22;7350;51.208;4.238;2023-04-06T04:25:59;16.50;99.90
14527;DHT22;7350;51.208;4.238;2023-04-06T04:28:26;16.40;99.90
14527;DHT22;7350;51.208;4.238;2023-04-06T04:30:53;16.40;99.90
14527;DHT22;7350;51.208;4.238;2023-04-06T04:33:22;16.40;99.90
14527;DHT22;7350;51.208;4.238;2023-04-06T04:35:49;16.40;99.90
14527;DHT22;7350;51.208;4.238;2023-04-06T04:38:16;16.50;99.90
14527;DHT22;7350;51.208;4.238;2023-04-06T04:40:43;16.50;99.90
14527;DHT22;7350;51.208;4.238;2023-04-06T04:43:10;16.40;99.90
14527;DHT22;7350;51.208;4.238;2023-04-06T04:45:37;16.50;99.90
14527;DHT22;7350;51.208;4.238;2023-04-06T04:48:04;16.60;99.90
14527;DHT22;7350;51.208;4.238;2023-04-06T04:50:33;16.70;99.90
14527;DHT22;7350;51.208;4.238;2023-04-06T04:53:00;16.90;99.90
14527;DHT22;7350;51.208;4.238;2023-04-06T04:55:27;17.10;99.90
14527;DHT22;7350;51.208;4.238;2023-04-06T04:57:54;17.20;99.90
14527;DHT22;7350;51.208;4.238;2023-04-06T05:00:22;17.40;99.90
14527;DHT22;7350;51.208;4.238;2023-04-06T05:02:49;17.50;99.90
14527;DHT22;7350;51.208;4.238;2023-04-06T05:05:16;17.70;99.90
14527;DHT22;7350;51.208;4.238;2023-04-06T05:07:44;17.80;99.90
14527;DHT22;7350;51.208;4.238;2023-04-06T05:10:11;18.00;99.90
14527;DHT22;7350;51.208;4.238;2023-04-06T05:12:38;18.10;99.90
14527;DHT22;7350;51.208;4.238;2023-04-06T05:15:07;18.20;99.90
14527;DHT22;7350;51.208;4.238;2023-04-06T05:17:34;18.20;99.90
14527;DHT22;7350;51.208;4.238;2023-04-06T05:20:02;18.20;99.90
14527;DHT22;7350;51.208;4.238;2023-04-06T05:22:29;18.20;99.90
14527;DHT22;7350;51.208;4.238;2023-04-06T05:24:57;18.10;99.90
14527;DHT22;7350;51.208;4.238;2023-04-06T05:27:24;18.10;99.90
14527;DHT22;7350;51.208;4.238;2023-04-06T05:29:51;18.10;99.90
14527;DHT22;7350;51.208;4.238;2023-04-06T05:32:18;18.10;99.90
14527;DHT22;7350;51.208;4.238;2023-04-06T05:34:48;18.10;99.90
14527;DHT22;7350;51.208;4.238;2023-04-06T05:37:15;18.00;99.90
14527;DHT22;7350;51.208;4.238;2023-04-06T05:39:42;18.00;99.90
14527;DHT22;7350;51.208;4.238;2023-04-06T05:42:11;17.90;99.90
14527;DHT22;7350;51.208;4.238;2023-04-06T05:44:38;17.90;99.90
14527;DHT22;7350;51.208;4.238;2023-04-06T05:47:05;17.90;99.90
14527;DHT22;7350;51.208;4.238;2023-04-06T05:49:32;17.80;99.90
14527;DHT22;7350;51.208;4.238;2023-04-06T05:51:59;17.80;99.90
14527;DHT22;7350;51.208;4.238;2023-04-06T05:54:26;17.80;99.90
14527;DHT22;7350;51.208;4.238;2023-04-06T05:56:53;17.80;99.90
14527;DHT22;7350;51.208;4.238;2023-04-06T05:59:21;17.80;99.90
14527;DHT22;7350;51.208;4.238;2023-04-06T06:01:49;17.80;99.90
14527;DHT22;7350;51.208;4.238;2023-04-06T06:04:16;17.80;99.90
14527;DHT22;7350;51.208;4.238;2023-04-06T06:06:43;17.70;99.90
14527;DHT22;7350;51.208;4.238;2023-04-06T06:09:10;17.70;99.90
14527;DHT22;7350;51.208;4.238;2023-04-06T06:11:37;17.70;99.90
14527;DHT22;7350;51.208;4.238;2023-04-06T06:14:04;17.70;99.90
14527;DHT22;7350;51.208;4.238;2023-04-06T06:16:33;17.70;99.90
14527;DHT22;7350;51.208;4.238;2023-04-06T06:19:00;17.60;99.90
14527;DHT22;7350;51.208;4.238;2023-04-06T06:21:27;17.60;99.90
14527;DHT22;7350;51.208;4.238;2023-04-06T06:23:56;17.60;99.90
14527;DHT22;7350;51.208;4.238;2023-04-06T06:26:23;17.60;99.90
14527;DHT22;7350;51.208;4.238;2023-04-06T06:28:50;17.50;99.90
14527;DHT22;7350;51.208;4.238;2023-04-06T06:31:17;17.60;99.90
14527;DHT22;7350;51.208;4.238;2023-04-06T06:33:47;17.50;99.90
14527;DHT22;7350;51.208;4.238;2023-04-06T06:36:16;17.50;99.90
14527;DHT22;7350;51.208;4.238;2023-04-06T06:38:43;17.50;99.90
14527;DHT22;7350;51.208;4.238;2023-04-06T06:41:10;17.50;99.90
14527;DHT22;7350;51.208;4.238;2023-04-06T06:43:37;17.50;99.90
14527;DHT22;7350;51.208;4.238;2023-04-06T06:46:04;17.40;99.90
14527;DHT22;7350;51.208;4.238;2023-04-06T06:48:31;17.40;99.90
14527;DHT22;7350;51.208;4.238;2023-04-06T06:51:00;17.40;99.90
14527;DHT22;7350;51.208;4.238;2023-04-06T06:53:27;17.40;99.90
14527;DHT22;7350;51.208;4.238;2023-04-06T06:55:54;17.40;99.90
14527;DHT22;7350;51.208;4.238;2023-04-06T06:58:24;17.40;99.90
14527;DHT22;7350;51.208;4.238;2023-04-06T07:00:55;17.30;99.90
14527;DHT22;7350;51.208;4.238;2023-04-06T07:03:22;17.30;99.90
14527;DHT22;7350;51.208;4.238;2023-04-06T07:05:50;17.30;99.90
14527;DHT22;7350;51.208;4.238;2023-04-06T07:08:21;17.30;99.90
14527;DHT22;7350;51.208;4.238;2023-04-06T07:10:49;17.30;99.90
14527;DHT22;7350;51.208;4.238;2023-04-06T07:13:17;17.30;99.90
14527;DHT22;7350;51.208;4.238;2023-04-06T07:15:48;17.20;99.90
14527;DHT22;7350;51.208;4.238;2023-04-06T07:18:15;17.20;99.90
14527;DHT22;7350;51.208;4.238;2023-04-06T07:20:42;17.20;99.90
14527;DHT22;7350;51.208;4.238;2023-04-06T07:23:09;17.20;99.90
14527;DHT22;7350;51.208;4.238;2023-04-06T07:25:38;17.20;99.90
14527;DHT22;7350;51.208;4.238;2023-04-06T07:28:05;17.20;99.90
14527;DHT22;7350;51.208;4.238;2023-04-06T07:30:32;17.20;99.90
14527;DHT22;7350;51.208;4.238;2023-04-06T07:32:59;17.10;99.90
14527;DHT22;7350;51.208;4.238;2023-04-06T07:35:27;17.10;99.90
14527;DHT22;7350;51.208;4.238;2023-04-06T07:37:55;17.10;99.90
14527;DHT22;7350;51.208;4.238;2023-04-06T07:40:22;17.00;99.90
14527;DHT22;7350;51.208;4.238;2023-04-06T07:42:51;17.00;99.90
14527;DHT22;7350;51.208;4.238;2023-04-06T07:45:18;17.00;99.90
14527;DHT22;7350;51.208;4.238;2023-04-06T07:47:45;17.10;99.90
14527;DHT22;7350;51.208;4.238;2023-04-06T07:50:14;17.10;99.90
14527;DHT22;7350;51.208;4.238;2023-04-06T07:52:41;17.10;99.90
14527;DHT22;7350;51.208;4.238;2023-04-06T07:55:10;17.10;99.90
14527;DHT22;7350;51.208;4.238;2023-04-06T07:57:37;17.10;99.90
14527;DHT22;7350;51.208;4.238;2023-04-06T08:00:07;17.00;99.90
14527;DHT22;7350;51.208;4.238;2023-04-06T08:02:35;17.00;99.90
14527;DHT22;7350;51.208;4.238;2023-04-06T08:05:02;17.00;99.90
14527;DHT22;7350;51.208;4.238;2023-04-06T08:07:29;17.00;99.90
14527;DHT22;7350;51.208;4.238;2023-04-06T08:09:56;16.90;99.90
14527;DHT22;7350;51.208;4.238;2023-04-06T08:12:23;17.00;99.90
14527;DHT22;7350;51.208;4.238;2023-04-06T08:14:50;16.90;99.90
14527;DHT22;7350;51.208;4.238;2023-04-06T08:17:19;17.00;99.90
14527;DHT22;7350;51.208;4.238;2023-04-06T08:19:46;17.00;99.90
14527;DHT22;7350;51.208;4.238;2023-04-06T08:22:13;16.90;99.90
14527;DHT22;7350;51.208;4.238;2023-04-06T08:24:40;16.90;99.90
14527;DHT22;7350;51.208;4.238;2023-04-06T08:27:07;17.00;99.90
14527;DHT22;7350;51.208;4.238;2023-04-06T08:29:34;16.90;99.90
14527;DHT22;7350;51.208;4.238;2023-04-06T08:32:01;16.90;99.90
14527;DHT22;7350;51.208;4.238;2023-04-06T08:34:32;16.90;99.90
14527;DHT22;7350;51.208;4.238;2023-04-06T08:36:59;16.80;99.90
14527;DHT22;7350;51.208;4.238;2023-04-06T08:39:27;16.80;99.90
14527;DHT22;7350;51.208;4.238;2023-04-06T08:41:56;16.80;99.90
14527;DHT22;7350;51.208;4.238;2023-04-06T08:44:25;16.80;99.90
14527;DHT22;7350;51.208;4.238;2023-04-06T08:46:52;16.80;99.90
14527;DHT22;7350;51.208;4.238;2023-04-06T08:49:20;16.80;99.90
14527;DHT22;7350;51.208;4.238;2023-04-06T08:51:49;16.90;99.90
14527;DHT22;7350;51.208;4.238;2023-04-06T08:54:16;16.90;99.90
14527;DHT22;7350;51.208;4.238;2023-04-06T08:56:43;16.80;99.90
14527;DHT22;7350;51.208;4.238;2023-04-06T08:59:11;16.90;99.90
14527;DHT22;7350;51.208;4.238;2023-04-06T09:01:39;16.80;99.90
14527;DHT22;7350;51.208;4.238;2023-04-06T09:04:08;16.80;99.90
14527;DHT22;7350;51.208;4.238;2023-04-06T09:06:36;16.70;99.90
14527;DHT22;7350;51.208;4.238;2023-04-06T09:09:05;16.70;99.90
14527;DHT22;7350;51.208;4.238;2023-04-06T09:11:42;16.70;99.90
14527;DHT22;7350;51.208;4.238;2023-04-06T09:14:09;16.70;99.90
14527;DHT22;7350;51.208;4.238;2023-04-06T09:16:41;16.70;99.90
14527;DHT22;7350;51.208;4.238;2023-04-06T09:19:08;16.70;99.90
14527;DHT22;7350;51.208;4.238;2023-04-06T09:21:36;16.80;99.90
14527;DHT22;7350;51.208;4.238;2023-04-06T09:24:06;16.80;99.90
14527;DHT22;7350;51.208;4.238;2023-04-06T09:26:43;16.70;99.90
14527;DHT22;7350;51.208;4.238;2023-04-06T09:29:10;16.70;99.90
14527;DHT22;7350;51.208;4.238;2023-04-06T09:31:48;16.70;99.90
14527;DHT22;7350;51.208;4.238;2023-04-06T09:34:21;16.70;99.90
14527;DHT22;7350;51.208;4.238;2023-04-06T09:36:48;16.70;99.90
14527;DHT22;7350;51.208;4.238;2023-04-06T09:39:21;16.60;99.90
14527;DHT22;7350;51.208;4.238;2023-04-06T09:41:50;16.60;99.90
14527;DHT22;7350;51.208;4.238;2023-04-06T09:44:18;16.60;99.90
14527;DHT22;7350;51.208;4.238;2023-04-06T09:46:46;16.60;99.90
14527;DHT22;7350;51.208;4.238;2023-04-06T09:49:13;16.70;99.90
14527;DHT22;7350;51.208;4.238;2023-04-06T09:51:42;16.70;99.90
14527;DHT22;7350;51.208;4.238;2023-04-06T09:54:12;16.70;99.90
14527;DHT22;7350;51.208;4.238;2023-04-06T09:56:46;16.60;99.90
14527;DHT22;7350;51.208;4.238;2023-04-06T09:59:17;16.60;99.90
14527;DHT22;7350;51.208;4.238;2023-04-06T10:01:49;16.60;99.90
14527;DHT22;7350;51.208;4.238;2023-04-06T10:04:26;16.60;99.90
14527;DHT22;7350;51.208;4.238;2023-04-06T10:06:57;16.60;99.90
14527;DHT22;7350;51.208;4.238;2023-04-06T10:09:28;16.60;99.90
14527;DHT22;7350;51.208;4.238;2023-04-06T10:12:03;16.60;99.90
14527;DHT22;7350;51.208;4.238;2023-04-06T10:14:32;16.70;99.90
14527;DHT22;7350;51.208;4.238;2023-04-06T10:16:59;16.70;99.90
14527;DHT22;7350;51.208;4.238;2023-04-06T10:19:32;16.70;99.90
14527;DHT22;7350;51.208;4.238;2023-04-06T10:22:02;16.70;99.90
14527;DHT22;7350;51.208;4.238;2023-04-06T10:24:32;16.60;99.90
14527;DHT22;7350;51.208;4.238;2023-04-06T10:27:02;16.70;99.90
14527;DHT22;7350;51.208;4.238;2023-04-06T10:29:42;16.70;99.90
14527;DHT22;7350;51.208;4.238;2023-04-06T10:32:09;16.70;99.90
14527;DHT22;7350;51.208;4.238;2023-04-06T10:34:36;16.60;99.90
14527;DHT22;7350;51.208;4.238;2023-04-06T10:37:12;16.70;99.90
14527;DHT22;7350;51.208;4.238;2023-04-06T10:39:52;16.60;99.90
14527;DHT22;7350;51.208;4.238;2023-04-06T10:42:35;16.60;99.90
14527;DHT22;7350;51.208;4.238;2023-04-06T10:45:05;16.60;99.90
14527;DHT22;7350;51.208;4.238;2023-04-06T10:47:39;16.70;99.90
14527;DHT22;7350;51.208;4.238;2023-04-06T10:50:07;16.70;99.90
14527;DHT22;7350;51.208;4.238;2023-04-06T10:52:34;16.70;99.90
14527;DHT22;7350;51.208;4.238;2023-04-06T10:55:01;16.70;99.90
14527;DHT22;7350;51.208;4.238;2023-04-06T10:57:30;16.70;99.90
14527;DHT22;7350;51.208;4.238;2023-04-06T10:59:58;16.60;99.90
14527;DHT22;7350;51.208;4.238;2023-04-06T11:02:26;16.60;99.90
14527;DHT22;7350;51.208;4.238;2023-04-06T11:04:56;16.60;99.90
14527;DHT22;7350;51.208;4.238;2023-04-06T11:07:24;16.70;99.90
14527;DHT22;7350;51.208;4.238;2023-04-06T11:09:51;16.60;99.90
14527;DHT22;7350;51.208;4.238;2023-04-06T11:12:22;16.60;99.90
14527;DHT22;7350;51.208;4.238;2023-04-06T11:14:56;16.60;99.90
14527;DHT22;7350;51.208;4.238;2023-04-06T11:17:28;16.60;99.90
14527;DHT22;7350;51.208;4.238;2023-04-06T11:19:56;16.60;99.90
14527;DHT22;7350;51.208;4.238;2023-04-06T11:22:23;16.60;99.90
14527;DHT22;7350;51.208;4.238;2023-04-06T11:24:51;16.60;99.90
14527;DHT22;7350;51.208;4.238;2023-04-06T11:27:18;16.60;99.90
14527;DHT22;7350;51.208;4.238;2023-04-06T11:29:46;16.60;99.90
14527;DHT22;7350;51.208;4.238;2023-04-06T11:32:21;16.60;99.90
14527;DHT22;7350;51.208;4.238;2023-04-06T11:34:49;16.70;99.90
14527;DHT22;7350;51.208;4.238;2023-04-06T11:37:16;16.70;99.90
14527;DHT22;7350;51.208;4.238;2023-04-06T11:39:47;16.70;99.90
14527;DHT22;7350;51.208;4.238;2023-04-06T11:42:22;16.60;99.90
14527;DHT22;7350;51.208;4.238;2023-04-06T11:44:51;16.70;99.90
14527;DHT22;7350;51.208;4.238;2023-04-06T11:47:26;16.60;99.90
14527;DHT22;7350;51.208;4.238;2023-04-06T11:49:53;16.60;99.90
14527;DHT22;7350;51.208;4.238;2023-04-06T11:52:22;16.50;99.90
14527;DHT22;7350;51.208;4.238;2023-04-06T11:54:50;16.50;99.90
14527;DHT22;7350;51.208;4.238;2023-04-06T11:57:18;16.50;99.90
14527;DHT22;7350;51.208;4.238;2023-04-06T11:59:45;16.50;99.90
14527;DHT22;7350;51.208;4.238;2023-04-06T12:02:13;16.60;99.90
14527;DHT22;7350;51.208;4.238;2023-04-06T12:04:41;16.50;99.90
14527;DHT22;7350;51.208;4.238;2023-04-06T12:07:08;16.60;99.90
14527;DHT22;7350;51.208;4.238;2023-04-06T12:09:35;16.60;99.90
14527;DHT22;7350;51.208;4.238;2023-04-06T12:12:02;16.60;99.90
14527;DHT22;7350;51.208;4.238;2023-04-06T12:14:30;16.60;99.90
14527;DHT22;7350;51.208;4.238;2023-04-06T12:16:57;16.60;99.90
14527;DHT22;7350;51.208;4.238;2023-04-06T12:19:24;16.60;99.90
14527;DHT22;7350;51.208;4.238;2023-04-06T12:21:53;16.60;99.90
14527;DHT22;7350;51.208;4.238;2023-04-06T12:24:21;16.60;99.90
14527;DHT22;7350;51.208;4.238;2023-04-06T12:26:48;16.60;99.90
14527;DHT22;7350;51.208;4.238;2023-04-06T12:29:15;16.50;99.90
14527;DHT22;7350;51.208;4.238;2023-04-06T12:31:42;16.50;99.90
14527;DHT22;7350;51.208;4.238;2023-04-06T12:34:10;16.60;99.90
14527;DHT22;7350;51.208;4.238;2023-04-06T12:36:38;16.60;99.90
14527;DHT22;7350;51.208;4.238;2023-04-06T12:39:06;16.50;99.90
14527;DHT22;7350;51.208;4.238;2023-04-06T12:41:34;16.60;99.90
14527;DHT22;7350;51.208;4.238;2023-04-06T12:44:01;16.50;99.90
14527;DHT22;7350;51.208;4.238;2023-04-06T12:46:29;16.60;99.90
14527;DHT22;7350;51.208;4.238;2023-04-06T12:48:56;16.50;99.90
14527;DHT22;7350;51.208;4.238;2023-04-06T12:51:25;16.50;99.90
14527;DHT22;7350;51.208;4.238;2023-04-06T12:53:54;16.60;99.90
14527;DHT22;7350;51.208;4.238;2023-04-06T12:56:22;16.60;99.90
14527;DHT22;7350;51.208;4.238;2023-04-06T12:58:50;16.60;99.90
14527;DHT22;7350;51.208;4.238;2023-04-06T13:01:18;16.60;99.90
14527;DHT22;7350;51.208;4.238;2023-04-06T13:03:45;16.60;99.90
14527;DHT22;7350;51.208;4.238;2023-04-06T13:06:12;16.60;99.90
14527;DHT22;7350;51.208;4.238;2023-04-06T13:08:41;16.60;99.90
14527;DHT22;7350;51.208;4.238;2023-04-06T13:11:08;16.60;99.90
14527;DHT22;7350;51.208;4.238;2023-04-06T13:13:36;16.60;99.90
14527;DHT22;7350;51.208;4.238;2023-04-06T13:16:06;16.60;99.90
14527;DHT22;7350;51.208;4.238;2023-04-06T13:18:34;16.60;99.90
14527;DHT22;7350;51.208;4.238;2023-04-06T13:21:02;16.60;99.90
14527;DHT22;7350;51.208;4.238;2023-04-06T13:23:29;16.60;99.90
14527;DHT22;7350;51.208;4.238;2023-04-06T13:26:00;16.60;99.90
14527;DHT22;7350;51.208;4.238;2023-04-06T13:28:29;16.60;99.90
14527;DHT22;7350;51.208;4.238;2023-04-06T13:30:58;16.60;99.90
14527;DHT22;7350;51.208;4.238;2023-04-06T13:33:26;16.60;99.90
14527;DHT22;7350;51.208;4.238;2023-04-06T13:35:53;16.60;99.90
14527;DHT22;7350;51.208;4.238;2023-04-06T13:38:20;16.50;99.90
14527;DHT22;7350;51.208;4.238;2023-04-06T13:40:49;16.60;99.90
14527;DHT22;7350;51.208;4.238;2023-04-06T13:43:16;16.50;99.90
14527;DHT22;7350;51.208;4.238;2023-04-06T13:45:50;16.60;99.90
14527;DHT22;7350;51.208;4.238;2023-04-06T13:48:19;16.50;99.90
14527;DHT22;7350;51.208;4.238;2023-04-06T13:50:46;16.60;99.90
14527;DHT22;7350;51.208;4.238;2023-04-06T13:53:13;16.50;99.90
14527;DHT22;7350;51.208;4.238;2023-04-06T13:55:40;16.50;99.90
14527;DHT22;7350;51.208;4.238;2023-04-06T13:58:08;16.50;99.90
14527;DHT22;7350;51.208;4.238;2023-04-06T14:00:35;16.50;99.90
14527;DHT22;7350;51.208;4.238;2023-04-06T14:03:02;16.50;99.90
14527;DHT22;7350;51.208;4.238;2023-04-06T14:05:32;16.50;99.90
14527;DHT22;7350;51.208;4.238;2023-04-06T14:07:59;16.50;99.90
14527;DHT22;7350;51.208;4.238;2023-04-06T14:10:26;16.50;99.90
14527;DHT22;7350;51.208;4.238;2023-04-06T14:12:53;16.50;99.90
14527;DHT22;7350;51.208;4.238;2023-04-06T14:15:21;16.50;99.90
14527;DHT22;7350;51.208;4.238;2023-04-06T14:17:49;16.50;99.90
14527;DHT22;7350;51.208;4.238;2023-04-06T14:20:17;16.50;99.90
14527;DHT22;7350;51.208;4.238;2023-04-06T14:22:45;16.50;99.90
14527;DHT22;7350;51.208;4.238;2023-04-06T14:25:14;16.50;99.90
14527;DHT22;7350;51.208;4.238;2023-04-06T14:27:42;16.50;99.90
14527;DHT22;7350;51.208;4.238;2023-04-06T14:30:10;16.50;99.90
14527;DHT22;7350;51.208;4.238;2023-04-06T14:32:37;16.50;99.90
14527;DHT22;7350;51.208;4.238;2023-04-06T14:35:04;16.50;99.90
14527;DHT22;7350;51.208;4.238;2023-04-06T14:37:31;16.50;99.90
14527;DHT22;7350;51.208;4.238;2023-04-06T14:40:00;16.50;99.90
14527;DHT22;7350;51.208;4.238;2023-04-06T14:42:27;16.50;99.90
14527;DHT22;7350;51.208;4.238;2023-04-06T14:44:54;16.50;99.90
14527;DHT22;7350;51.208;4.238;2023-04-06T14:47:20;16.50;99.90
14527;DHT22;7350;51.208;4.238;2023-04-06T14:49:48;16.50;99.90
14527;DHT22;7350;51.208;4.238;2023-04-06T14:52:15;16.50;99.90
14527;DHT22;7350;51.208;4.238;2023-04-06T14:54:42;16.50;99.90
14527;DHT22;7350;51.208;4.238;2023-04-06T14:57:11;16.40;99.90
14527;DHT22;7350;51.208;4.238;2023-04-06T14:59:37;16.50;99.90
14527;DHT22;7350;51.208;4.238;2023-04-06T15:02:05;16.60;99.90
14527;DHT22;7350;51.208;4.238;2023-04-06T15:04:34;16.60;99.90
14527;DHT22;7350;51.208;4.238;2023-04-06T15:07:01;16.70;99.90
14527;DHT22;7350;51.208;4.238;2023-04-06T15:09:28;16.80;99.90
14527;DHT22;7350;51.208;4.238;2023-04-06T15:11:55;16.90;99.90
14527;DHT22;7350;51.208;4.238;2023-04-06T15:14:24;16.90;99.90
14527;DHT22;7350;51.208;4.238;2023-04-06T15:16:51;17.00;99.90
14527;DHT22;7350;51.208;4.238;2023-04-06T15:19:18;17.10;99.90
14527;DHT22;7350;51.208;4.238;2023-04-06T15:21:45;17.10;99.90
14527;DHT22;7350;51.208;4.238;2023-04-06T15:24:12;17.20;99.90
14527;DHT22;7350;51.208;4.238;2023-04-06T15:26:39;17.30;99.90
14527;DHT22;7350;51.208;4.238;2023-04-06T15:29:06;17.30;99.90
14527;DHT22;7350;51.208;4.238;2023-04-06T15:31:34;17.40;99.90
14527;DHT22;7350;51.208;4.238;2023-04-06T15:34:02;17.50;99.90
14527;DHT22;7350;51.208;4.238;2023-04-06T15:36:29;17.50;99.90
14527;DHT22;7350;51.208;4.238;2023-04-06T15:38:57;17.50;99.90
14527;DHT22;7350;51.208;4.238;2023-04-06T15:41:24;17.50;99.90
14527;DHT22;7350;51.208;4.238;2023-04-06T15:43:52;17.50;99.90
14527;DHT22;7350;51.208;4.238;2023-04-06T15:46:19;17.50;99.90
14527;DHT22;7350;51.208;4.238;2023-04-06T15:48:48;17.50;99.90